createdAt,value
2023-02-27T04:48:20.855Z,399.40
2023-02-27T04:51:06.505Z,388.33
2023-02-27T04:53:43.657Z,389.25
2023-02-27T04:56:16.411Z,393.77
2023-02-27T04:58:54.436Z,386.60
2023-02-27T05:01:47.704Z,391.75
2023-02-27T05:04:18.503Z,391.98
2023-02-27T05:06:48.199Z,399.87
2023-02-27T05:09:19.992Z,399.00
2023-02-27T05:12:25.811Z,393.63
2023-02-27T05:15:13.904Z,391.33
2023-02-27T05:17:48.931Z,385.38
2023-02-27T05:20:17.192Z,383.95
2023-02-27T05:22:48.589Z,398.27
2023-02-27T05:25:27.931Z,386.92
2023-02-27T05:28:02.552Z,402.65
2023-02-27T05:30:36.850Z,399.88
2023-02-27T05:33:41.372Z,402.35
2023-02-27T05:36:17.195Z,400.00
2023-02-27T05:38:59.450Z,403.52
2023-02-27T05:41:31.521Z,399.83
2023-02-27T05:44:06.484Z,402.33
2023-02-27T05:46:41.485Z,404.48
2023-02-27T05:49:21.137Z,390.65
2023-02-27T05:51:51.411Z,401.87
2023-02-27T05:55:03.259Z,411.50
2023-02-27T05:57:36.944Z,400.23
2023-02-27T06:00:27.589Z,402.02
2023-02-27T06:02:54.250Z,409.60
2023-02-27T06:05:20.933Z,409.02
2023-02-27T06:07:47.585Z,410.33
2023-02-27T06:10:16.261Z,406.30
2023-02-27T06:12:43.233Z,415.35
2023-02-27T06:15:10.696Z,408.10
2023-02-27T06:17:37.382Z,406.00
2023-02-27T06:20:04.304Z,409.30
2023-02-27T06:22:30.901Z,407.58
2023-02-27T06:24:57.560Z,405.75
2023-02-27T06:27:24.258Z,397.30
2023-02-27T06:29:50.822Z,399.35
2023-02-27T06:32:17.547Z,396.90
2023-02-27T06:34:44.154Z,404.55
2023-02-27T06:37:10.762Z,400.20
2023-02-27T06:39:37.624Z,399.13
2023-02-27T06:42:04.420Z,412.50
2023-02-27T06:44:31.036Z,402.80
2023-02-27T06:46:57.628Z,406.77
2023-02-27T06:49:24.222Z,407.30
2023-02-27T06:51:50.889Z,404.10
2023-02-27T06:54:17.841Z,404.30
2023-02-27T06:56:44.550Z,403.92
2023-02-27T06:59:11.273Z,402.58
2023-02-27T07:01:37.942Z,408.67
2023-02-27T07:04:04.916Z,412.40
2023-02-27T07:07:35.150Z,407.30
2023-02-27T07:09:18.347Z,410.58
2023-02-27T07:11:44.964Z,408.15
2023-02-27T07:14:12.513Z,406.77
2023-02-27T07:16:39.208Z,410.27
2023-02-27T07:19:07.445Z,415.48
2023-02-27T07:21:35.238Z,412.88
2023-02-27T07:24:04.672Z,410.45
2023-02-27T07:26:31.314Z,415.80
2023-02-27T07:28:57.969Z,414.08
2023-02-27T07:31:24.695Z,407.38
2023-02-27T07:33:51.420Z,410.40
2023-02-27T07:36:18.041Z,416.80
2023-02-27T07:38:44.694Z,407.35
2023-02-27T07:41:21.291Z,407.60
2023-02-27T07:43:56.175Z,414.38
2023-02-27T07:46:24.074Z,419.70
2023-02-27T07:48:50.752Z,415.15
2023-02-27T07:51:17.417Z,413.07
2023-02-27T07:53:44.193Z,412.45
2023-02-27T07:56:10.807Z,417.50
2023-02-27T07:58:37.412Z,414.27
2023-02-27T08:01:04.100Z,417.42
2023-02-27T08:03:30.758Z,413.90
2023-02-27T08:05:57.492Z,420.85
2023-02-27T08:08:24.578Z,423.15
2023-02-27T08:10:51.231Z,424.23
2023-02-27T08:13:24.977Z,434.77
2023-02-27T08:15:57.176Z,436.42
2023-02-27T08:18:23.993Z,433.58
2023-02-27T08:20:50.781Z,432.45
2023-02-27T08:23:17.412Z,436.48
2023-02-27T08:25:44.117Z,439.15
2023-02-27T08:28:10.716Z,437.42
2023-02-27T08:30:37.368Z,444.73
2023-02-27T08:33:04.127Z,446.25
2023-02-27T08:35:30.974Z,438.42
2023-02-27T08:37:57.888Z,440.80
2023-02-27T08:40:24.816Z,449.80
2023-02-27T08:42:51.737Z,437.35
2023-02-27T08:45:18.465Z,436.48
2023-02-27T08:47:45.320Z,440.77
2023-02-27T08:50:12.659Z,440.25
2023-02-27T08:52:39.311Z,440.20
2023-02-27T08:55:06.570Z,434.70
2023-02-27T08:57:33.269Z,433.57
2023-02-27T09:00:00.251Z,438.92
2023-02-27T09:02:27.067Z,446.17
2023-02-27T09:04:53.715Z,449.38
2023-02-27T09:07:20.698Z,444.70
2023-02-27T09:09:49.712Z,448.80
2023-02-27T09:12:16.597Z,444.92
2023-02-27T09:14:43.240Z,442.23
2023-02-27T09:17:09.938Z,445.55
2023-02-27T09:19:36.796Z,453.67
2023-02-27T09:22:03.446Z,448.83
2023-02-27T09:24:30.242Z,452.52
2023-02-27T09:26:56.894Z,447.87
2023-02-27T09:29:23.924Z,450.05
2023-02-27T09:31:50.656Z,460.17
2023-02-27T09:34:17.435Z,460.05
2023-02-27T09:36:44.068Z,468.58
2023-02-27T09:39:10.742Z,462.25
2023-02-27T09:41:51.555Z,459.23
2023-02-27T09:44:56.947Z,463.13
2023-02-27T09:47:25.861Z,463.75
2023-02-27T09:50:13.043Z,444.38
2023-02-27T09:52:39.673Z,450.00
2023-02-27T09:55:15.166Z,449.02
2023-02-27T09:58:06.735Z,449.70
2023-02-27T10:00:55.928Z,453.05
2023-02-27T10:03:57.635Z,458.75
2023-02-27T10:06:37.432Z,453.08
2023-02-27T10:09:11.238Z,440.95
2023-02-27T10:11:46.471Z,443.95
2023-02-27T10:14:22.010Z,447.63
2023-02-27T10:16:51.234Z,438.30
2023-02-27T10:19:27.242Z,447.15
2023-02-27T10:21:55.229Z,455.23
2023-02-27T10:24:44.676Z,446.65
2023-02-27T10:27:19.058Z,452.45
2023-02-27T10:29:46.812Z,443.85
2023-02-27T10:32:32.785Z,437.50
2023-02-27T10:35:27.199Z,451.75
2023-02-27T10:37:59.572Z,444.33
2023-02-27T10:40:26.837Z,446.40
2023-02-27T10:42:56.296Z,440.80
2023-02-27T10:45:23.047Z,453.27
2023-02-27T10:47:49.683Z,452.13
2023-02-27T10:50:33.233Z,448.23
2023-02-27T10:53:06.908Z,460.60
2023-02-27T10:55:38.243Z,449.13
2023-02-27T10:58:05.573Z,432.03
2023-02-27T11:00:37.871Z,448.93
2023-02-27T11:03:05.261Z,448.45
2023-02-27T11:05:34.220Z,453.27
2023-02-27T11:08:20.897Z,450.58
2023-02-27T11:10:59.527Z,453.85
2023-02-27T11:13:29.904Z,446.27
2023-02-27T11:16:15.441Z,457.55
2023-02-27T11:18:47.352Z,452.13
2023-02-27T11:21:17.015Z,440.65
2023-02-27T11:23:54.247Z,442.38
2023-02-27T11:26:26.893Z,448.57
2023-02-27T11:29:15.034Z,450.83
2023-02-27T11:32:00.302Z,452.98
2023-02-27T11:34:39.711Z,456.20
2023-02-27T11:37:18.880Z,452.25
2023-02-27T11:39:56.143Z,457.83
2023-02-27T11:42:29.156Z,457.77
2023-02-27T11:45:00.502Z,458.42
2023-02-27T11:47:31.901Z,456.77
2023-02-27T11:50:17.315Z,463.67
2023-02-27T11:53:07.201Z,471.05
2023-02-27T11:55:34.331Z,463.95
2023-02-27T11:58:16.533Z,457.90
2023-02-27T12:01:07.616Z,469.95
2023-02-27T12:03:45.281Z,470.60
2023-02-27T12:06:38.111Z,461.13
2023-02-27T12:09:30.540Z,459.35
2023-02-27T12:11:58.070Z,471.40
2023-02-27T12:14:43.256Z,468.27
2023-02-27T12:17:52.019Z,460.45
2023-02-27T12:20:22.200Z,458.30
2023-02-27T12:22:52.798Z,464.65
2023-02-27T12:25:52.614Z,463.48
2023-02-27T12:28:33.190Z,461.67
2023-02-27T12:31:27.310Z,464.30
2023-02-27T12:34:19.882Z,468.83
2023-02-27T12:36:48.488Z,459.70
2023-02-27T12:39:20.952Z,466.95
2023-02-27T12:41:53.634Z,472.13
2023-02-27T12:44:45.001Z,471.95
2023-02-27T12:47:37.570Z,468.52
2023-02-27T12:50:16.326Z,467.63
2023-02-27T12:53:01.783Z,473.63
2023-02-27T12:55:35.406Z,470.60
2023-02-27T12:58:17.272Z,478.60
2023-02-27T13:00:46.295Z,482.90
2023-02-27T13:03:22.102Z,484.98
2023-02-27T13:06:08.299Z,483.58
2023-02-27T13:08:38.253Z,491.53
2023-02-27T13:11:29.189Z,494.20
2023-02-27T13:14:08.621Z,501.85
2023-02-27T13:16:40.610Z,505.60
2023-02-27T13:19:17.213Z,504.70
2023-02-27T13:21:54.762Z,515.03
2023-02-27T13:24:27.168Z,508.40
2023-02-27T13:26:57.187Z,511.10
2023-02-27T13:29:28.045Z,513.80
2023-02-27T13:32:44.112Z,515.92
2023-02-27T13:35:51.931Z,505.58
2023-02-27T13:38:44.386Z,500.00
2023-02-27T13:41:20.287Z,491.90
2023-02-27T13:43:52.718Z,494.13
2023-02-27T13:46:23.875Z,504.95
2023-02-27T13:49:29.523Z,502.80
2023-02-27T13:52:04.824Z,500.95
2023-02-27T13:54:34.068Z,500.90
2023-02-27T13:57:03.645Z,505.65
2023-02-27T13:59:33.330Z,501.88
2023-02-27T14:02:11.014Z,492.70
2023-02-27T14:04:46.927Z,482.77
2023-02-27T14:07:21.219Z,456.33
2023-02-27T14:10:11.664Z,463.42
2023-02-27T14:12:45.830Z,458.00
2023-02-27T14:15:24.853Z,473.55
2023-02-27T14:18:12.681Z,481.73
2023-02-27T14:20:42.440Z,489.35
2023-02-27T14:23:22.664Z,485.38
2023-02-27T14:26:12.287Z,484.35
2023-02-27T14:28:55.870Z,477.67
2023-02-27T14:31:28.495Z,477.27
2023-02-27T14:33:58.781Z,488.45
2023-02-27T14:36:28.149Z,482.02
2023-02-27T14:38:57.414Z,481.55
2023-02-27T14:41:44.643Z,485.92
2023-02-27T14:44:20.495Z,477.65
2023-02-27T14:46:47.305Z,441.98
2023-02-27T14:49:24.985Z,442.58
2023-02-27T14:51:52.990Z,457.42
2023-02-27T14:54:21.778Z,462.42
2023-02-27T14:56:57.520Z,455.52
2023-02-27T14:59:30.303Z,468.17
2023-02-27T15:02:01.752Z,471.58
2023-02-27T15:04:30.953Z,467.57
2023-02-27T15:06:59.443Z,479.83
2023-02-27T15:09:44.481Z,478.98
2023-02-27T15:12:17.524Z,486.33
2023-02-27T15:14:49.524Z,471.05
2023-02-27T15:17:18.746Z,479.10
2023-02-27T15:19:48.798Z,468.20
2023-02-27T15:22:38.600Z,481.33
2023-02-27T15:25:07.678Z,485.92
2023-02-27T15:27:37.273Z,482.58
2023-02-27T15:30:04.828Z,484.00
2023-02-27T15:32:35.251Z,488.27
2023-02-27T15:35:17.183Z,494.52
2023-02-27T15:37:50.677Z,505.52
2023-02-27T15:40:32.858Z,509.95
2023-02-27T15:43:00.988Z,506.27
2023-02-27T15:45:36.039Z,509.55
2023-02-27T15:48:03.944Z,514.88
2023-02-27T15:50:37.118Z,507.23
2023-02-27T15:53:09.241Z,494.50
2023-02-27T15:55:39.591Z,495.27
2023-02-27T15:58:30.533Z,500.00
2023-02-27T16:01:11.280Z,488.30
2023-02-27T16:03:45.836Z,491.27
2023-02-27T16:06:19.016Z,497.13
2023-02-27T16:08:50.939Z,494.70
2023-02-27T16:11:22.331Z,500.98
2023-02-27T16:13:49.796Z,500.83
2023-02-27T16:16:45.801Z,500.38
2023-02-27T16:19:26.775Z,508.00
2023-02-27T16:22:06.765Z,503.10
2023-02-27T16:24:33.979Z,507.13
2023-02-27T16:27:01.753Z,506.63
2023-02-27T16:29:39.783Z,485.25
2023-02-27T16:32:06.686Z,485.90
2023-02-27T16:34:45.456Z,486.95
2023-02-27T16:37:27.017Z,477.55
2023-02-27T16:39:54.355Z,477.00
2023-02-27T16:42:21.481Z,484.50
2023-02-27T16:44:48.409Z,481.80
2023-02-27T16:47:15.078Z,483.42
2023-02-27T16:49:44.128Z,474.80
2023-02-27T16:52:11.505Z,481.33
2023-02-27T16:54:38.323Z,471.98
2023-02-27T16:57:05.104Z,463.70
2023-02-27T16:59:40.933Z,467.23
2023-02-27T17:02:13.241Z,467.30
2023-02-27T17:04:43.799Z,475.77
2023-02-27T17:07:15.723Z,474.23
2023-02-27T17:09:46.132Z,472.67
2023-02-27T17:12:13.239Z,469.52
2023-02-27T17:14:39.876Z,465.90
2023-02-27T17:17:06.872Z,476.38
2023-02-27T17:19:33.974Z,487.10
2023-02-27T17:22:00.592Z,480.10
2023-02-27T17:24:27.291Z,475.98
2023-02-27T17:26:54.072Z,474.55
2023-02-27T17:29:21.500Z,475.52
2023-02-27T17:31:48.393Z,468.33
2023-02-27T17:34:16.740Z,461.77
2023-02-27T17:36:43.884Z,459.27
2023-02-27T17:39:14.702Z,447.23
2023-02-27T17:41:43.017Z,461.25
2023-02-27T17:44:11.397Z,459.83
2023-02-27T17:46:39.388Z,464.27
2023-02-27T17:49:06.596Z,441.60
2023-02-27T17:51:33.815Z,439.08
2023-02-27T17:54:02.592Z,431.60
2023-02-27T17:56:29.655Z,436.80
2023-02-27T17:58:56.828Z,445.92
2023-02-27T18:01:25.827Z,453.50
2023-02-27T18:03:54.670Z,452.67
2023-02-27T18:06:22.455Z,439.05
2023-02-27T18:08:49.356Z,450.30
2023-02-27T18:11:19.448Z,449.38
2023-02-27T18:13:46.784Z,453.67
2023-02-27T18:16:14.216Z,466.75
2023-02-27T18:18:42.794Z,458.23
2023-02-27T18:21:20.115Z,453.02
2023-02-27T18:23:47.900Z,463.00
2023-02-27T18:26:29.063Z,454.98
2023-02-27T18:29:10.206Z,459.58
2023-02-27T18:31:42.838Z,464.40
2023-02-27T18:34:09.633Z,462.95
2023-02-27T18:36:37.076Z,459.58
2023-02-27T18:39:04.892Z,457.10
2023-02-27T18:41:31.832Z,456.85
2023-02-27T18:43:58.693Z,447.98
2023-02-27T18:46:25.784Z,454.98
2023-02-27T18:48:52.492Z,453.42
2023-02-27T18:51:19.444Z,464.05
2023-02-27T18:53:48.321Z,462.25
2023-02-27T18:56:17.404Z,456.20
2023-02-27T18:58:44.098Z,450.25
2023-02-27T19:01:23.272Z,458.10
2023-02-27T19:03:50.613Z,456.23
2023-02-27T19:06:17.687Z,458.83
2023-02-27T19:08:44.916Z,458.70
2023-02-27T19:11:34.491Z,455.25
2023-02-27T19:14:07.973Z,463.80
2023-02-27T19:16:35.132Z,469.00
2023-02-27T19:19:03.158Z,463.53
2023-02-27T19:21:29.852Z,448.95
2023-02-27T19:23:56.710Z,455.63
2023-02-27T19:26:24.474Z,465.88
2023-02-27T19:28:53.658Z,461.48
2023-02-27T19:31:21.026Z,458.88
2023-02-27T19:33:47.916Z,456.15
2023-02-27T19:36:17.669Z,466.00
2023-02-27T19:38:44.332Z,461.63
2023-02-27T19:41:13.278Z,473.35
2023-02-27T19:43:41.244Z,468.20
2023-02-27T19:46:10.957Z,462.77
2023-02-27T19:48:38.234Z,460.23
2023-02-27T19:51:06.365Z,459.30
2023-02-27T19:53:35.796Z,461.90
2023-02-27T19:56:04.902Z,454.92
2023-02-27T19:58:33.438Z,457.60
2023-02-27T20:01:00.574Z,456.67
2023-02-27T20:03:27.751Z,453.02
2023-02-27T20:05:54.800Z,452.92
2023-02-27T20:08:21.591Z,455.67
2023-02-27T20:10:58.913Z,451.92
2023-02-27T20:13:26.612Z,457.25
2023-02-27T20:16:02.033Z,450.05
2023-02-27T20:18:29.969Z,458.55
2023-02-27T20:21:05.237Z,456.05
2023-02-27T20:23:33.699Z,451.15
2023-02-27T20:26:00.475Z,448.45
2023-02-27T20:28:31.856Z,453.58
2023-02-27T20:30:58.492Z,446.60
2023-02-27T20:33:25.081Z,424.60
2023-02-27T20:35:51.736Z,420.25
2023-02-27T20:38:19.859Z,433.73
2023-02-27T20:40:46.533Z,426.55
2023-02-27T20:43:13.163Z,435.67
2023-02-27T20:45:40.558Z,438.77
2023-02-27T20:48:07.557Z,444.23
2023-02-27T20:50:34.881Z,436.92
2023-02-27T20:53:01.611Z,440.33
2023-02-27T20:55:28.345Z,434.63
2023-02-27T20:57:55.022Z,437.35
2023-02-27T21:00:22.226Z,432.77
2023-02-27T21:02:48.901Z,434.47
2023-02-27T21:05:15.607Z,428.80
2023-02-27T21:07:42.273Z,434.95
2023-02-27T21:10:09.598Z,441.58
2023-02-27T21:12:36.340Z,444.58
2023-02-27T21:15:03.506Z,437.50
2023-02-27T21:17:30.186Z,445.02
2023-02-27T21:19:56.787Z,431.15
2023-02-27T21:22:23.591Z,439.65
2023-02-27T21:24:52.370Z,434.40
2023-02-27T21:27:21.259Z,439.58
2023-02-27T21:29:48.759Z,437.48
2023-02-27T21:32:15.528Z,438.05
2023-02-27T21:34:42.266Z,427.70
2023-02-27T21:37:10.583Z,428.35
2023-02-27T21:39:37.256Z,422.53
2023-02-27T21:42:04.441Z,422.35
2023-02-27T21:44:31.952Z,428.55
2023-02-27T21:46:58.885Z,427.88
2023-02-27T21:49:27.755Z,432.40
2023-02-27T21:51:54.521Z,439.45
2023-02-27T21:54:21.458Z,439.38
2023-02-27T21:56:49.759Z,438.38
2023-02-27T21:59:18.036Z,432.92
2023-02-27T22:01:48.395Z,438.27
2023-02-27T22:04:16.820Z,425.50
2023-02-27T22:06:43.799Z,430.67
2023-02-27T22:09:10.501Z,432.15
2023-02-27T22:11:37.646Z,426.57
2023-02-27T22:14:06.490Z,431.38
2023-02-27T22:16:33.745Z,427.55
2023-02-27T22:19:08.464Z,430.10
2023-02-27T22:21:37.041Z,429.17
2023-02-27T22:24:04.119Z,427.83
2023-02-27T22:26:32.030Z,431.10
2023-02-27T22:28:59.346Z,427.00
2023-02-27T22:31:29.763Z,426.70
2023-02-27T22:34:00.900Z,434.17
2023-02-27T22:36:29.690Z,430.98
2023-02-27T22:38:56.599Z,435.20
2023-02-27T22:41:29.555Z,423.38
2023-02-27T22:43:57.223Z,425.42
2023-02-27T22:46:29.661Z,428.42
2023-02-27T22:48:57.812Z,423.23
2023-02-27T22:51:25.415Z,422.93
2023-02-27T22:53:52.058Z,424.90
2023-02-27T22:56:18.779Z,435.17
2023-02-27T22:58:45.836Z,440.58
2023-02-27T23:01:16.152Z,433.02
2023-02-27T23:03:44.033Z,432.02
2023-02-27T23:06:13.804Z,429.87
2023-02-27T23:08:41.109Z,426.70
2023-02-27T23:11:08.628Z,426.33
2023-02-27T23:13:35.460Z,425.60
2023-02-27T23:16:11.077Z,426.40
2023-02-27T23:18:43.434Z,427.43
2023-02-27T23:21:10.286Z,438.88
2023-02-27T23:23:36.965Z,435.25
2023-02-27T23:26:05.621Z,433.77
2023-02-27T23:28:33.902Z,431.27
2023-02-27T23:31:01.008Z,433.38
2023-02-27T23:33:28.729Z,426.40
2023-02-27T23:35:55.887Z,427.77
2023-02-27T23:38:22.566Z,429.00
2023-02-27T23:40:49.600Z,432.58
2023-02-27T23:43:16.503Z,432.25
2023-02-27T23:45:43.318Z,434.40
2023-02-27T23:48:10.045Z,450.20
2023-02-27T23:50:46.683Z,442.77
2023-02-27T23:53:13.671Z,427.58
2023-02-27T23:55:41.109Z,428.70
2023-02-27T23:58:10.087Z,438.45
